Dutchtown, Iowa
Current Conditions -  °F | °C
As of 2:15 AM on Monday 24 Nov 2014 (Local Time) from KMXO Reporting Station
Overcast Overcast  
Wind Chill: 27°   Ceiling: 800
Heat Index: 37°   Visibility: 8mi
Dew Point: 37°   Wind: 20mph
Humidity: 100%   Direction: 300°WNW
Pressure: 29.19"   Gusts: 32mph
Location:  42.4689°N, 91.4531°W
Report Text: KMXO 240815Z AUTO 30017G28KT 8SM OVC008 03/03 A2919 RMK AO2
Loading
Personal Weather Stations






























Interactive Weather Map New forecast layout! Learn more

10-Day Weather Forecast

Advertisements
Track Severe Weather on mobile